sensor_id;sensor_type;location;lat;lon;timestamp;P1;durP1;ratioP1;P2;durP2;ratioP2
11962;SDS011;62678;52.130;5.584;2023-03-23T00:00:50;8.20;;;5.97;;
11962;SDS011;62678;52.130;5.584;2023-03-23T00:03:19;13.13;;;5.68;;
11962;SDS011;62678;52.130;5.584;2023-03-23T00:05:46;11.55;;;6.68;;
11962;SDS011;62678;52.130;5.584;2023-03-23T00:08:15;12.18;;;6.03;;
11962;SDS011;62678;52.130;5.584;2023-03-23T00:10:43;10.73;;;6.32;;
11962;SDS011;62678;52.130;5.584;2023-03-23T00:13:11;12.82;;;6.55;;
11962;SDS011;62678;52.130;5.584;2023-03-23T00:15:38;14.30;;;6.05;;
11962;SDS011;62678;52.130;5.584;2023-03-23T00:18:06;9.63;;;5.82;;
11962;SDS011;62678;52.130;5.584;2023-03-23T00:20:33;9.40;;;6.30;;
11962;SDS011;62678;52.130;5.584;2023-03-23T00:23:06;10.07;;;5.75;;
11962;SDS011;62678;52.130;5.584;2023-03-23T00:25:33;10.60;;;5.60;;
11962;SDS011;62678;52.130;5.584;2023-03-23T00:28:00;8.75;;;5.45;;
11962;SDS011;62678;52.130;5.584;2023-03-23T00:30:29;6.63;;;4.18;;
11962;SDS011;62678;52.130;5.584;2023-03-23T00:32:56;6.93;;;5.03;;
11962;SDS011;62678;52.130;5.584;2023-03-23T00:35:23;7.35;;;4.80;;
11962;SDS011;62678;52.130;5.584;2023-03-23T00:37:50;8.02;;;4.95;;
11962;SDS011;62678;52.130;5.584;2023-03-23T00:40:17;5.95;;;4.65;;
11962;SDS011;62678;52.130;5.584;2023-03-23T00:42:44;7.18;;;4.25;;
11962;SDS011;62678;52.130;5.584;2023-03-23T00:45:11;9.93;;;4.68;;
11962;SDS011;62678;52.130;5.584;2023-03-23T00:47:39;7.80;;;4.55;;
11962;SDS011;62678;52.130;5.584;2023-03-23T00:50:07;6.95;;;4.22;;
11962;SDS011;62678;52.130;5.584;2023-03-23T00:52:34;7.68;;;4.55;;
11962;SDS011;62678;52.130;5.584;2023-03-23T00:55:01;7.60;;;4.28;;
11962;SDS011;62678;52.130;5.584;2023-03-23T00:57:28;7.55;;;4.53;;
11962;SDS011;62678;52.130;5.584;2023-03-23T00:59:55;8.15;;;4.57;;
11962;SDS011;62678;52.130;5.584;2023-03-23T01:02:22;7.50;;;4.18;;
11962;SDS011;62678;52.130;5.584;2023-03-23T01:04:51;8.57;;;4.35;;
11962;SDS011;62678;52.130;5.584;2023-03-23T01:07:18;7.30;;;4.40;;
11962;SDS011;62678;52.130;5.584;2023-03-23T01:09:45;6.82;;;4.13;;
11962;SDS011;62678;52.130;5.584;2023-03-23T01:12:13;7.03;;;4.30;;
11962;SDS011;62678;52.130;5.584;2023-03-23T01:14:40;6.43;;;3.83;;
11962;SDS011;62678;52.130;5.584;2023-03-23T01:17:08;6.15;;;4.10;;
11962;SDS011;62678;52.130;5.584;2023-03-23T01:19:34;6.43;;;3.95;;
11962;SDS011;62678;52.130;5.584;2023-03-23T01:22:03;6.55;;;4.10;;
11962;SDS011;62678;52.130;5.584;2023-03-23T01:24:30;5.45;;;3.83;;
11962;SDS011;62678;52.130;5.584;2023-03-23T01:26:57;6.63;;;3.33;;
11962;SDS011;62678;52.130;5.584;2023-03-23T01:29:26;5.15;;;3.38;;
11962;SDS011;62678;52.130;5.584;2023-03-23T01:31:53;6.20;;;3.63;;
11962;SDS011;62678;52.130;5.584;2023-03-23T01:34:20;7.07;;;3.85;;
11962;SDS011;62678;52.130;5.584;2023-03-23T01:36:47;4.78;;;3.25;;
11962;SDS011;62678;52.130;5.584;2023-03-23T01:39:16;6.93;;;3.30;;
11962;SDS011;62678;52.130;5.584;2023-03-23T01:41:42;7.03;;;3.60;;
11962;SDS011;62678;52.130;5.584;2023-03-23T01:47:10;3.67;;;3.22;;
11962;SDS011;62678;52.130;5.584;2023-03-23T01:49:38;6.13;;;3.90;;
11962;SDS011;62678;52.130;5.584;2023-03-23T01:52:10;5.55;;;3.60;;
11962;SDS011;62678;52.130;5.584;2023-03-23T01:54:43;4.68;;;3.50;;
11962;SDS011;62678;52.130;5.584;2023-03-23T01:57:13;10.55;;;4.10;;
11962;SDS011;62678;52.130;5.584;2023-03-23T01:59:42;4.38;;;3.65;;
11962;SDS011;62678;52.130;5.584;2023-03-23T02:02:10;4.18;;;3.63;;
11962;SDS011;62678;52.130;5.584;2023-03-23T02:04:38;4.55;;;4.05;;
11962;SDS011;62678;52.130;5.584;2023-03-23T02:07:06;6.90;;;3.60;;
11962;SDS011;62678;52.130;5.584;2023-03-23T02:09:34;5.75;;;4.28;;
11962;SDS011;62678;52.130;5.584;2023-03-23T02:12:02;4.95;;;4.10;;
11962;SDS011;62678;52.130;5.584;2023-03-23T02:14:30;4.88;;;3.90;;
11962;SDS011;62678;52.130;5.584;2023-03-23T02:16:58;8.05;;;4.25;;
11962;SDS011;62678;52.130;5.584;2023-03-23T02:19:41;4.93;;;4.05;;
11962;SDS011;62678;52.130;5.584;2023-03-23T02:22:33;6.18;;;4.80;;
11962;SDS011;62678;52.130;5.584;2023-03-23T02:25:40;5.22;;;4.22;;
11962;SDS011;62678;52.130;5.584;2023-03-23T02:31:21;7.60;;;5.05;;
11962;SDS011;62678;52.130;5.584;2023-03-23T02:34:14;5.10;;;4.57;;
11962;SDS011;62678;52.130;5.584;2023-03-23T02:36:45;4.93;;;4.05;;
11962;SDS011;62678;52.130;5.584;2023-03-23T02:39:17;5.43;;;4.40;;
11962;SDS011;62678;52.130;5.584;2023-03-23T02:41:47;7.15;;;4.72;;
11962;SDS011;62678;52.130;5.584;2023-03-23T02:44:18;6.70;;;4.65;;
11962;SDS011;62678;52.130;5.584;2023-03-23T02:46:47;4.25;;;3.83;;
11962;SDS011;62678;52.130;5.584;2023-03-23T02:49:16;5.80;;;4.90;;
11962;SDS011;62678;52.130;5.584;2023-03-23T02:51:46;7.00;;;4.78;;
11962;SDS011;62678;52.130;5.584;2023-03-23T02:54:14;9.93;;;5.05;;
11962;SDS011;62678;52.130;5.584;2023-03-23T02:56:45;8.00;;;4.65;;
11962;SDS011;62678;52.130;5.584;2023-03-23T02:59:13;5.63;;;4.70;;
11962;SDS011;62678;52.130;5.584;2023-03-23T03:04:32;6.07;;;4.53;;
11962;SDS011;62678;52.130;5.584;2023-03-23T03:07:05;5.97;;;4.50;;
11962;SDS011;62678;52.130;5.584;2023-03-23T03:09:42;5.18;;;4.05;;
11962;SDS011;62678;52.130;5.584;2023-03-23T03:12:15;7.65;;;4.78;;
11962;SDS011;62678;52.130;5.584;2023-03-23T03:14:49;5.95;;;4.53;;
11962;SDS011;62678;52.130;5.584;2023-03-23T03:17:22;5.50;;;4.53;;
11962;SDS011;62678;52.130;5.584;2023-03-23T03:19:54;6.25;;;4.13;;
11962;SDS011;62678;52.130;5.584;2023-03-23T03:22:25;6.32;;;3.90;;
11962;SDS011;62678;52.130;5.584;2023-03-23T03:24:55;6.40;;;4.13;;
11962;SDS011;62678;52.130;5.584;2023-03-23T03:27:24;5.63;;;4.13;;
11962;SDS011;62678;52.130;5.584;2023-03-23T03:29:53;6.95;;;3.92;;
11962;SDS011;62678;52.130;5.584;2023-03-23T03:32:24;5.25;;;3.67;;
11962;SDS011;62678;52.130;5.584;2023-03-23T03:34:59;8.05;;;3.90;;
11962;SDS011;62678;52.130;5.584;2023-03-23T03:37:32;8.27;;;4.10;;
11962;SDS011;62678;52.130;5.584;2023-03-23T03:40:02;6.55;;;3.75;;
11962;SDS011;62678;52.130;5.584;2023-03-23T03:42:35;4.88;;;3.38;;
11962;SDS011;62678;52.130;5.584;2023-03-23T03:45:03;7.07;;;3.40;;
11962;SDS011;62678;52.130;5.584;2023-03-23T03:47:30;9.00;;;3.40;;
11962;SDS011;62678;52.130;5.584;2023-03-23T03:49:57;8.45;;;3.10;;
11962;SDS011;62678;52.130;5.584;2023-03-23T03:52:25;5.47;;;3.45;;
11962;SDS011;62678;52.130;5.584;2023-03-23T03:54:54;7.00;;;3.30;;
11962;SDS011;62678;52.130;5.584;2023-03-23T03:57:20;9.93;;;3.78;;
11962;SDS011;62678;52.130;5.584;2023-03-23T03:59:48;7.93;;;3.35;;
11962;SDS011;62678;52.130;5.584;2023-03-23T04:02:14;5.32;;;3.38;;
11962;SDS011;62678;52.130;5.584;2023-03-23T04:04:44;6.20;;;3.42;;
11962;SDS011;62678;52.130;5.584;2023-03-23T04:07:13;7.78;;;3.53;;
11962;SDS011;62678;52.130;5.584;2023-03-23T04:09:41;6.10;;;3.42;;
11962;SDS011;62678;52.130;5.584;2023-03-23T04:12:08;8.80;;;3.55;;
11962;SDS011;62678;52.130;5.584;2023-03-23T04:14:35;6.85;;;3.60;;
11962;SDS011;62678;52.130;5.584;2023-03-23T04:17:02;5.97;;;3.50;;
11962;SDS011;62678;52.130;5.584;2023-03-23T04:19:29;5.65;;;3.25;;
11962;SDS011;62678;52.130;5.584;2023-03-23T04:21:58;5.15;;;3.40;;
11962;SDS011;62678;52.130;5.584;2023-03-23T04:24:26;7.50;;;3.90;;
11962;SDS011;62678;52.130;5.584;2023-03-23T04:26:57;7.53;;;3.10;;
11962;SDS011;62678;52.130;5.584;2023-03-23T04:29:24;6.85;;;3.58;;
11962;SDS011;62678;52.130;5.584;2023-03-23T04:31:50;5.18;;;3.05;;
11962;SDS011;62678;52.130;5.584;2023-03-23T04:34:17;4.82;;;2.65;;
11962;SDS011;62678;52.130;5.584;2023-03-23T04:36:44;5.30;;;2.78;;
11962;SDS011;62678;52.130;5.584;2023-03-23T04:39:12;5.50;;;2.60;;
11962;SDS011;62678;52.130;5.584;2023-03-23T04:41:42;9.00;;;2.85;;
11962;SDS011;62678;52.130;5.584;2023-03-23T04:44:09;4.82;;;2.70;;
11962;SDS011;62678;52.130;5.584;2023-03-23T04:46:36;7.25;;;2.70;;
11962;SDS011;62678;52.130;5.584;2023-03-23T04:49:03;6.65;;;2.70;;
11962;SDS011;62678;52.130;5.584;2023-03-23T04:51:30;9.18;;;2.70;;
11962;SDS011;62678;52.130;5.584;2023-03-23T04:53:57;5.97;;;2.63;;
11962;SDS011;62678;52.130;5.584;2023-03-23T04:56:24;6.32;;;2.50;;
11962;SDS011;62678;52.130;5.584;2023-03-23T04:58:52;4.68;;;2.15;;
11962;SDS011;62678;52.130;5.584;2023-03-23T05:01:19;6.90;;;2.15;;
11962;SDS011;62678;52.130;5.584;2023-03-23T05:03:46;6.95;;;2.10;;
11962;SDS011;62678;52.130;5.584;2023-03-23T05:06:14;7.05;;;2.38;;
11962;SDS011;62678;52.130;5.584;2023-03-23T05:08:41;10.70;;;2.25;;
11962;SDS011;62678;52.130;5.584;2023-03-23T05:11:08;11.30;;;2.45;;
11962;SDS011;62678;52.130;5.584;2023-03-23T05:13:35;8.90;;;2.13;;
11962;SDS011;62678;52.130;5.584;2023-03-23T05:16:06;8.07;;;2.25;;
11962;SDS011;62678;52.130;5.584;2023-03-23T05:18:33;10.63;;;2.42;;
11962;SDS011;62678;52.130;5.584;2023-03-23T05:21:00;9.10;;;2.15;;
11962;SDS011;62678;52.130;5.584;2023-03-23T05:23:27;12.43;;;2.63;;
11962;SDS011;62678;52.130;5.584;2023-03-23T05:25:56;11.45;;;2.65;;
11962;SDS011;62678;52.130;5.584;2023-03-23T05:28:25;7.85;;;2.00;;
11962;SDS011;62678;52.130;5.584;2023-03-23T05:30:53;7.82;;;2.17;;
11962;SDS011;62678;52.130;5.584;2023-03-23T05:33:22;6.88;;;1.92;;
11962;SDS011;62678;52.130;5.584;2023-03-23T05:35:50;8.35;;;2.38;;
11962;SDS011;62678;52.130;5.584;2023-03-23T05:38:17;10.63;;;2.22;;
11962;SDS011;62678;52.130;5.584;2023-03-23T05:40:44;11.57;;;2.38;;
11962;SDS011;62678;52.130;5.584;2023-03-23T05:43:11;11.43;;;2.33;;
11962;SDS011;62678;52.130;5.584;2023-03-23T05:45:38;8.90;;;2.30;;
11962;SDS011;62678;52.130;5.584;2023-03-23T05:48:05;9.80;;;2.30;;
11962;SDS011;62678;52.130;5.584;2023-03-23T05:50:33;12.25;;;2.20;;
11962;SDS011;62678;52.130;5.584;2023-03-23T05:53:01;6.72;;;2.30;;
11962;SDS011;62678;52.130;5.584;2023-03-23T05:55:29;13.45;;;2.67;;
11962;SDS011;62678;52.130;5.584;2023-03-23T05:57:56;13.38;;;2.72;;
11962;SDS011;62678;52.130;5.584;2023-03-23T06:00:22;9.15;;;3.05;;
11962;SDS011;62678;52.130;5.584;2023-03-23T06:02:53;13.82;;;2.33;;
11962;SDS011;62678;52.130;5.584;2023-03-23T06:05:21;10.48;;;2.20;;
11962;SDS011;62678;52.130;5.584;2023-03-23T06:07:51;12.88;;;2.50;;
11962;SDS011;62678;52.130;5.584;2023-03-23T06:10:19;12.95;;;2.78;;
11962;SDS011;62678;52.130;5.584;2023-03-23T06:12:46;16.55;;;2.88;;
11962;SDS011;62678;52.130;5.584;2023-03-23T06:15:14;9.25;;;2.83;;
11962;SDS011;62678;52.130;5.584;2023-03-23T06:17:41;13.80;;;2.72;;
11962;SDS011;62678;52.130;5.584;2023-03-23T06:20:08;13.65;;;3.08;;
11962;SDS011;62678;52.130;5.584;2023-03-23T06:22:36;22.20;;;4.55;;
11962;SDS011;62678;52.130;5.584;2023-03-23T06:25:06;9.02;;;3.40;;
11962;SDS011;62678;52.130;5.584;2023-03-23T06:27:34;14.95;;;3.80;;
11962;SDS011;62678;52.130;5.584;2023-03-23T06:30:01;12.98;;;3.20;;
11962;SDS011;62678;52.130;5.584;2023-03-23T06:32:29;12.68;;;4.10;;
11962;SDS011;62678;52.130;5.584;2023-03-23T06:34:57;16.85;;;4.25;;
11962;SDS011;62678;52.130;5.584;2023-03-23T06:37:24;13.95;;;4.13;;
11962;SDS011;62678;52.130;5.584;2023-03-23T06:39:51;16.42;;;3.80;;
11962;SDS011;62678;52.130;5.584;2023-03-23T06:42:21;14.27;;;3.55;;
11962;SDS011;62678;52.130;5.584;2023-03-23T06:44:50;11.80;;;3.55;;
11962;SDS011;62678;52.130;5.584;2023-03-23T06:47:17;16.83;;;4.07;;
11962;SDS011;62678;52.130;5.584;2023-03-23T06:49:44;15.73;;;3.63;;
11962;SDS011;62678;52.130;5.584;2023-03-23T06:52:11;13.27;;;3.72;;
11962;SDS011;62678;52.130;5.584;2023-03-23T06:54:38;9.50;;;3.65;;
11962;SDS011;62678;52.130;5.584;2023-03-23T06:57:05;15.75;;;3.22;;
11962;SDS011;62678;52.130;5.584;2023-03-23T06:59:33;10.98;;;3.22;;
11962;SDS011;62678;52.130;5.584;2023-03-23T07:02:00;12.30;;;3.13;;
11962;SDS011;62678;52.130;5.584;2023-03-23T07:04:27;13.35;;;2.70;;
11962;SDS011;62678;52.130;5.584;2023-03-23T07:06:54;10.70;;;2.97;;
11962;SDS011;62678;52.130;5.584;2023-03-23T07:09:21;16.70;;;3.08;;
11962;SDS011;62678;52.130;5.584;2023-03-23T07:11:48;11.18;;;3.00;;
11962;SDS011;62678;52.130;5.584;2023-03-23T07:14:16;13.23;;;2.92;;
11962;SDS011;62678;52.130;5.584;2023-03-23T07:16:44;12.20;;;3.10;;
11962;SDS011;62678;52.130;5.584;2023-03-23T07:19:12;11.35;;;3.10;;
11962;SDS011;62678;52.130;5.584;2023-03-23T07:21:38;16.98;;;3.90;;
11962;SDS011;62678;52.130;5.584;2023-03-23T07:24:06;13.57;;;3.03;;
11962;SDS011;62678;52.130;5.584;2023-03-23T07:26:36;9.30;;;2.85;;
11962;SDS011;62678;52.130;5.584;2023-03-23T07:29:03;12.77;;;2.60;;
11962;SDS011;62678;52.130;5.584;2023-03-23T07:31:32;9.75;;;2.50;;
11962;SDS011;62678;52.130;5.584;2023-03-23T07:34:01;11.82;;;3.50;;
11962;SDS011;62678;52.130;5.584;2023-03-23T07:36:29;12.80;;;2.88;;
11962;SDS011;62678;52.130;5.584;2023-03-23T07:38:56;13.23;;;2.85;;
11962;SDS011;62678;52.130;5.584;2023-03-23T07:41:24;9.02;;;2.15;;
11962;SDS011;62678;52.130;5.584;2023-03-23T07:43:51;9.25;;;2.30;;
11962;SDS011;62678;52.130;5.584;2023-03-23T07:46:18;9.43;;;2.35;;
11962;SDS011;62678;52.130;5.584;2023-03-23T07:48:45;9.73;;;2.88;;
11962;SDS011;62678;52.130;5.584;2023-03-23T07:51:14;14.68;;;2.58;;
11962;SDS011;62678;52.130;5.584;2023-03-23T07:53:42;10.07;;;2.78;;
11962;SDS011;62678;52.130;5.584;2023-03-23T07:56:09;10.40;;;2.72;;
11962;SDS011;62678;52.130;5.584;2023-03-23T07:58:37;9.00;;;2.63;;
11962;SDS011;62678;52.130;5.584;2023-03-23T08:01:04;12.63;;;2.90;;
11962;SDS011;62678;52.130;5.584;2023-03-23T08:03:32;8.25;;;2.25;;
11962;SDS011;62678;52.130;5.584;2023-03-23T08:05:59;10.10;;;2.50;;
11962;SDS011;62678;52.130;5.584;2023-03-23T08:08:27;8.80;;;2.60;;
11962;SDS011;62678;52.130;5.584;2023-03-23T08:10:55;10.65;;;2.58;;
11962;SDS011;62678;52.130;5.584;2023-03-23T08:13:22;11.95;;;3.13;;
11962;SDS011;62678;52.130;5.584;2023-03-23T08:15:49;10.40;;;2.88;;
11962;SDS011;62678;52.130;5.584;2023-03-23T08:18:16;12.95;;;3.13;;
11962;SDS011;62678;52.130;5.584;2023-03-23T08:20:44;8.85;;;2.65;;
11962;SDS011;62678;52.130;5.584;2023-03-23T08:23:11;12.02;;;2.60;;
11962;SDS011;62678;52.130;5.584;2023-03-23T08:25:41;8.90;;;2.42;;
11962;SDS011;62678;52.130;5.584;2023-03-23T08:28:08;9.50;;;2.83;;
11962;SDS011;62678;52.130;5.584;2023-03-23T08:30:35;7.13;;;2.47;;
11962;SDS011;62678;52.130;5.584;2023-03-23T08:33:05;8.30;;;2.53;;
11962;SDS011;62678;52.130;5.584;2023-03-23T08:35:33;9.15;;;2.28;;
11962;SDS011;62678;52.130;5.584;2023-03-23T08:38:00;10.77;;;2.75;;
11962;SDS011;62678;52.130;5.584;2023-03-23T08:40:28;7.53;;;2.42;;
11962;SDS011;62678;52.130;5.584;2023-03-23T08:42:56;14.23;;;3.10;;
11962;SDS011;62678;52.130;5.584;2023-03-23T08:45:24;11.63;;;2.65;;
11962;SDS011;62678;52.130;5.584;2023-03-23T08:47:51;7.32;;;2.40;;
11962;SDS011;62678;52.130;5.584;2023-03-23T08:50:21;10.73;;;3.63;;
11962;SDS011;62678;52.130;5.584;2023-03-23T08:52:49;11.82;;;2.75;;
11962;SDS011;62678;52.130;5.584;2023-03-23T08:55:16;10.05;;;2.97;;
11962;SDS011;62678;52.130;5.584;2023-03-23T08:57:43;9.18;;;3.15;;
11962;SDS011;62678;52.130;5.584;2023-03-23T09:00:13;10.50;;;2.30;;
11962;SDS011;62678;52.130;5.584;2023-03-23T09:02:43;6.75;;;2.50;;
11962;SDS011;62678;52.130;5.584;2023-03-23T09:05:11;10.80;;;2.90;;
11962;SDS011;62678;52.130;5.584;2023-03-23T09:07:38;6.72;;;2.60;;
11962;SDS011;62678;52.130;5.584;2023-03-23T09:10:06;10.30;;;2.70;;
11962;SDS011;62678;52.130;5.584;2023-03-23T09:12:34;9.75;;;2.50;;
11962;SDS011;62678;52.130;5.584;2023-03-23T09:15:01;11.02;;;3.03;;
11962;SDS011;62678;52.130;5.584;2023-03-23T09:17:34;9.63;;;2.65;;
11962;SDS011;62678;52.130;5.584;2023-03-23T09:20:02;13.30;;;2.63;;
11962;SDS011;62678;52.130;5.584;2023-03-23T09:22:32;9.02;;;2.70;;
11962;SDS011;62678;52.130;5.584;2023-03-23T09:24:59;12.70;;;2.50;;
11962;SDS011;62678;52.130;5.584;2023-03-23T09:27:26;8.05;;;2.80;;
11962;SDS011;62678;52.130;5.584;2023-03-23T09:29:53;10.88;;;2.70;;
11962;SDS011;62678;52.130;5.584;2023-03-23T09:32:20;13.52;;;3.40;;
11962;SDS011;62678;52.130;5.584;2023-03-23T09:34:50;9.73;;;2.90;;
11962;SDS011;62678;52.130;5.584;2023-03-23T09:37:20;12.73;;;2.72;;
11962;SDS011;62678;52.130;5.584;2023-03-23T09:39:46;8.45;;;2.72;;
11962;SDS011;62678;52.130;5.584;2023-03-23T09:42:21;9.45;;;2.78;;
11962;SDS011;62678;52.130;5.584;2023-03-23T09:45:02;10.10;;;2.50;;
11962;SDS011;62678;52.130;5.584;2023-03-23T09:47:37;9.02;;;2.58;;
11962;SDS011;62678;52.130;5.584;2023-03-23T09:50:12;11.02;;;2.63;;
11962;SDS011;62678;52.130;5.584;2023-03-23T09:52:44;9.95;;;2.58;;
11962;SDS011;62678;52.130;5.584;2023-03-23T09:55:16;10.85;;;2.85;;
11962;SDS011;62678;52.130;5.584;2023-03-23T09:57:46;11.32;;;2.65;;
11962;SDS011;62678;52.130;5.584;2023-03-23T10:00:20;13.30;;;2.53;;
11962;SDS011;62678;52.130;5.584;2023-03-23T10:02:52;14.70;;;2.60;;
11962;SDS011;62678;52.130;5.584;2023-03-23T10:05:31;12.57;;;2.65;;
11962;SDS011;62678;52.130;5.584;2023-03-23T10:08:01;8.45;;;2.60;;
11962;SDS011;62678;52.130;5.584;2023-03-23T10:10:35;15.32;;;2.70;;
11962;SDS011;62678;52.130;5.584;2023-03-23T10:13:11;13.18;;;3.55;;
11962;SDS011;62678;52.130;5.584;2023-03-23T10:15:45;12.13;;;2.55;;
11962;SDS011;62678;52.130;5.584;2023-03-23T10:18:15;10.18;;;2.67;;
11962;SDS011;62678;52.130;5.584;2023-03-23T10:20:48;12.50;;;2.50;;
11962;SDS011;62678;52.130;5.584;2023-03-23T10:26:11;12.82;;;2.55;;
11962;SDS011;62678;52.130;5.584;2023-03-23T10:28:44;11.40;;;2.75;;
11962;SDS011;62678;52.130;5.584;2023-03-23T10:31:15;11.32;;;2.45;;
11962;SDS011;62678;52.130;5.584;2023-03-23T10:33:47;13.05;;;2.33;;
11962;SDS011;62678;52.130;5.584;2023-03-23T10:36:19;14.40;;;3.05;;
11962;SDS011;62678;52.130;5.584;2023-03-23T10:38:52;12.02;;;2.35;;
11962;SDS011;62678;52.130;5.584;2023-03-23T10:41:26;8.70;;;2.40;;
11962;SDS011;62678;52.130;5.584;2023-03-23T10:43:53;10.20;;;2.38;;
11962;SDS011;62678;52.130;5.584;2023-03-23T10:46:23;11.07;;;2.60;;
11962;SDS011;62678;52.130;5.584;2023-03-23T10:48:58;9.73;;;2.47;;
11962;SDS011;62678;52.130;5.584;2023-03-23T10:51:30;10.30;;;2.42;;
11962;SDS011;62678;52.130;5.584;2023-03-23T10:54:01;10.10;;;2.25;;
11962;SDS011;62678;52.130;5.584;2023-03-23T10:56:34;9.90;;;2.38;;
11962;SDS011;62678;52.130;5.584;2023-03-23T10:59:11;12.32;;;2.60;;
11962;SDS011;62678;52.130;5.584;2023-03-23T11:01:42;12.02;;;2.40;;
11962;SDS011;62678;52.130;5.584;2023-03-23T11:04:11;11.38;;;2.40;;
11962;SDS011;62678;52.130;5.584;2023-03-23T11:06:43;13.13;;;2.60;;
11962;SDS011;62678;52.130;5.584;2023-03-23T11:09:11;14.50;;;2.40;;
11962;SDS011;62678;52.130;5.584;2023-03-23T11:11:43;14.82;;;2.70;;
11962;SDS011;62678;52.130;5.584;2023-03-23T11:14:17;13.77;;;3.13;;
11962;SDS011;62678;52.130;5.584;2023-03-23T11:16:46;12.80;;;2.70;;
11962;SDS011;62678;52.130;5.584;2023-03-23T11:19:21;12.48;;;2.80;;
11962;SDS011;62678;52.130;5.584;2023-03-23T11:21:51;11.45;;;2.75;;
11962;SDS011;62678;52.130;5.584;2023-03-23T11:24:21;11.82;;;2.25;;
11962;SDS011;62678;52.130;5.584;2023-03-23T11:26:49;12.88;;;2.78;;
11962;SDS011;62678;52.130;5.584;2023-03-23T11:29:18;13.82;;;2.55;;
11962;SDS011;62678;52.130;5.584;2023-03-23T11:31:48;15.32;;;2.60;;
11962;SDS011;62678;52.130;5.584;2023-03-23T11:34:18;10.05;;;2.25;;
11962;SDS011;62678;52.130;5.584;2023-03-23T11:36:48;10.20;;;2.60;;
11962;SDS011;62678;52.130;5.584;2023-03-23T11:39:22;18.50;;;3.13;;
11962;SDS011;62678;52.130;5.584;2023-03-23T11:41:51;9.18;;;2.00;;
11962;SDS011;62678;52.130;5.584;2023-03-23T11:44:20;12.38;;;3.10;;
11962;SDS011;62678;52.130;5.584;2023-03-23T11:46:50;10.05;;;2.42;;
11962;SDS011;62678;52.130;5.584;2023-03-23T11:49:26;13.48;;;2.47;;
11962;SDS011;62678;52.130;5.584;2023-03-23T11:52:00;13.73;;;2.60;;
11962;SDS011;62678;52.130;5.584;2023-03-23T11:54:34;14.18;;;2.45;;
11962;SDS011;62678;52.130;5.584;2023-03-23T11:57:06;11.13;;;2.33;;
11962;SDS011;62678;52.130;5.584;2023-03-23T11:59:35;10.30;;;2.15;;
11962;SDS011;62678;52.130;5.584;2023-03-23T12:04:59;10.48;;;2.65;;
11962;SDS011;62678;52.130;5.584;2023-03-23T12:07:46;12.32;;;2.72;;
11962;SDS011;62678;52.130;5.584;2023-03-23T12:10:25;13.45;;;2.92;;
11962;SDS011;62678;52.130;5.584;2023-03-23T12:13:11;13.23;;;2.65;;
11962;SDS011;62678;52.130;5.584;2023-03-23T12:15:52;12.43;;;2.95;;
11962;SDS011;62678;52.130;5.584;2023-03-23T12:18:36;12.38;;;2.80;;
11962;SDS011;62678;52.130;5.584;2023-03-23T12:21:10;15.30;;;3.55;;
11962;SDS011;62678;52.130;5.584;2023-03-23T12:23:45;16.55;;;2.90;;
11962;SDS011;62678;52.130;5.584;2023-03-23T12:26:21;10.18;;;2.85;;
11962;SDS011;62678;52.130;5.584;2023-03-23T12:29:02;13.02;;;3.10;;
11962;SDS011;62678;52.130;5.584;2023-03-23T12:32:01;10.07;;;2.60;;
11962;SDS011;62678;52.130;5.584;2023-03-23T12:34:44;15.57;;;3.05;;
11962;SDS011;62678;52.130;5.584;2023-03-23T12:37:21;16.13;;;3.08;;
11962;SDS011;62678;52.130;5.584;2023-03-23T12:40:05;15.00;;;3.03;;
11962;SDS011;62678;52.130;5.584;2023-03-23T12:42:51;12.93;;;2.63;;
11962;SDS011;62678;52.130;5.584;2023-03-23T12:45:27;10.38;;;2.95;;
11962;SDS011;62678;52.130;5.584;2023-03-23T12:48:11;11.85;;;2.47;;
11962;SDS011;62678;52.130;5.584;2023-03-23T12:50:42;14.20;;;3.40;;
11962;SDS011;62678;52.130;5.584;2023-03-23T12:53:13;12.90;;;2.60;;
11962;SDS011;62678;52.130;5.584;2023-03-23T12:55:46;9.77;;;2.30;;
11962;SDS011;62678;52.130;5.584;2023-03-23T12:58:18;16.17;;;2.67;;
11962;SDS011;62678;52.130;5.584;2023-03-23T13:00:53;8.32;;;1.92;;
11962;SDS011;62678;52.130;5.584;2023-03-23T13:03:23;9.45;;;2.40;;
11962;SDS011;62678;52.130;5.584;2023-03-23T13:05:55;9.90;;;2.50;;
11962;SDS011;62678;52.130;5.584;2023-03-23T13:08:30;10.48;;;2.30;;
11962;SDS011;62678;52.130;5.584;2023-03-23T13:11:01;11.20;;;2.10;;
11962;SDS011;62678;52.130;5.584;2023-03-23T13:13:41;10.27;;;2.35;;
11962;SDS011;62678;52.130;5.584;2023-03-23T13:16:14;7.70;;;1.70;;
11962;SDS011;62678;52.130;5.584;2023-03-23T13:18:49;11.32;;;2.08;;
11962;SDS011;62678;52.130;5.584;2023-03-23T13:21:31;8.43;;;2.30;;
11962;SDS011;62678;52.130;5.584;2023-03-23T13:24:01;7.00;;;2.40;;
11962;SDS011;62678;52.130;5.584;2023-03-23T13:26:31;11.38;;;1.88;;
11962;SDS011;62678;52.130;5.584;2023-03-23T13:29:08;7.40;;;1.90;;
11962;SDS011;62678;52.130;5.584;2023-03-23T13:31:40;10.60;;;2.38;;
11962;SDS011;62678;52.130;5.584;2023-03-23T13:34:15;9.43;;;2.20;;
11962;SDS011;62678;52.130;5.584;2023-03-23T13:36:53;9.05;;;2.00;;
11962;SDS011;62678;52.130;5.584;2023-03-23T13:39:22;9.23;;;1.85;;
11962;SDS011;62678;52.130;5.584;2023-03-23T13:42:00;8.98;;;2.30;;
11962;SDS011;62678;52.130;5.584;2023-03-23T13:44:40;5.93;;;1.90;;
11962;SDS011;62678;52.130;5.584;2023-03-23T13:47:16;6.75;;;2.53;;
11962;SDS011;62678;52.130;5.584;2023-03-23T13:49:53;8.30;;;2.45;;
11962;SDS011;62678;52.130;5.584;2023-03-23T13:52:22;10.13;;;2.75;;
11962;SDS011;62678;52.130;5.584;2023-03-23T13:54:52;8.15;;;2.05;;
11962;SDS011;62678;52.130;5.584;2023-03-23T13:57:49;8.15;;;2.00;;
11962;SDS011;62678;52.130;5.584;2023-03-23T14:00:37;10.18;;;2.28;;
11962;SDS011;62678;52.130;5.584;2023-03-23T14:03:13;9.70;;;2.00;;
11962;SDS011;62678;52.130;5.584;2023-03-23T14:05:43;7.50;;;2.15;;
11962;SDS011;62678;52.130;5.584;2023-03-23T14:08:20;8.80;;;2.30;;
11962;SDS011;62678;52.130;5.584;2023-03-23T14:10:51;9.65;;;2.13;;
11962;SDS011;62678;52.130;5.584;2023-03-23T14:13:24;8.43;;;2.60;;
11962;SDS011;62678;52.130;5.584;2023-03-23T14:15:58;9.20;;;2.50;;
11962;SDS011;62678;52.130;5.584;2023-03-23T14:18:29;7.38;;;2.00;;
11962;SDS011;62678;52.130;5.584;2023-03-23T14:20:58;10.18;;;2.28;;
11962;SDS011;62678;52.130;5.584;2023-03-23T14:23:25;9.93;;;2.38;;
11962;SDS011;62678;52.130;5.584;2023-03-23T14:25:56;6.32;;;2.22;;
11962;SDS011;62678;52.130;5.584;2023-03-23T14:28:32;10.55;;;2.38;;
11962;SDS011;62678;52.130;5.584;2023-03-23T14:31:07;7.85;;;2.33;;
11962;SDS011;62678;52.130;5.584;2023-03-23T14:33:41;7.70;;;2.08;;
11962;SDS011;62678;52.130;5.584;2023-03-23T14:36:08;8.07;;;2.20;;
11962;SDS011;62678;52.130;5.584;2023-03-23T14:38:35;8.57;;;2.92;;
11962;SDS011;62678;52.130;5.584;2023-03-23T14:41:04;6.88;;;2.40;;
11962;SDS011;62678;52.130;5.584;2023-03-23T14:43:32;6.30;;;2.00;;
11962;SDS011;62678;52.130;5.584;2023-03-23T14:46:02;4.07;;;1.95;;
11962;SDS011;62678;52.130;5.584;2023-03-23T14:48:34;6.25;;;2.33;;
11962;SDS011;62678;52.130;5.584;2023-03-23T14:51:03;7.32;;;2.08;;
11962;SDS011;62678;52.130;5.584;2023-03-23T14:53:33;8.18;;;2.33;;
11962;SDS011;62678;52.130;5.584;2023-03-23T14:56:03;12.07;;;2.60;;
11962;SDS011;62678;52.130;5.584;2023-03-23T14:58:37;9.07;;;2.22;;
11962;SDS011;62678;52.130;5.584;2023-03-23T15:01:06;8.07;;;2.50;;
11962;SDS011;62678;52.130;5.584;2023-03-23T15:03:38;7.30;;;2.10;;
11962;SDS011;62678;52.130;5.584;2023-03-23T15:06:09;7.63;;;2.60;;
11962;SDS011;62678;52.130;5.584;2023-03-23T15:08:40;12.93;;;2.50;;
11962;SDS011;62678;52.130;5.584;2023-03-23T15:11:11;10.35;;;2.20;;
11962;SDS011;62678;52.130;5.584;2023-03-23T15:13:42;10.63;;;2.35;;